createdAt,value
2023-09-10T00:05:15.576Z,14.17
2023-09-10T00:15:20.258Z,13.97
2023-09-10T00:25:23.133Z,13.84
2023-09-10T00:35:27.306Z,13.78
2023-09-10T00:45:30.317Z,13.61
2023-09-10T00:55:36.265Z,13.59
2023-09-10T01:05:39.180Z,13.52
2023-09-10T01:15:46.577Z,13.33
2023-09-10T01:25:50.796Z,13.18
2023-09-10T01:35:56.872Z,12.53
2023-09-10T01:46:01.088Z,12.86
2023-09-10T01:56:04.338Z,12.77
2023-09-10T02:06:08.582Z,12.80
2023-09-10T02:16:11.465Z,12.69
2023-09-10T02:26:17.185Z,12.49
2023-09-10T02:36:20.112Z,12.35
2023-09-10T02:46:24.864Z,12.37
2023-09-10T02:56:27.662Z,12.34
2023-09-10T03:06:33.049Z,12.28
2023-09-10T03:16:36.589Z,11.95
2023-09-10T03:26:40.785Z,12.05
2023-09-10T03:36:43.599Z,11.90
2023-09-10T03:46:47.936Z,11.73
2023-09-10T03:56:50.846Z,10.50
2023-09-10T04:06:54.994Z,11.02
2023-09-10T04:16:57.839Z,11.28
2023-09-10T04:27:02.526Z,11.35
2023-09-10T04:37:05.698Z,11.45
2023-09-10T04:47:10.635Z,11.51
2023-09-10T04:57:13.504Z,11.50
2023-09-10T05:07:17.654Z,11.48
2023-09-10T05:17:21.203Z,11.41
2023-09-10T05:27:25.426Z,11.87
2023-09-10T05:37:28.468Z,12.10
2023-09-10T05:47:32.688Z,12.00
2023-09-10T05:57:35.513Z,12.01
2023-09-10T06:07:39.661Z,12.81
2023-09-10T06:17:42.591Z,13.19
2023-09-10T06:27:46.886Z,13.75
2023-09-10T06:37:50.013Z,13.93
2023-09-10T06:47:54.292Z,14.13
2023-09-10T06:57:57.406Z,14.90
2023-09-10T07:08:01.861Z,15.73
2023-09-10T07:18:05.536Z,16.37
2023-09-10T07:28:09.782Z,17.10
2023-09-10T07:38:12.632Z,17.65
2023-09-10T07:48:17.189Z,17.29
2023-09-10T07:58:20.602Z,18.27
2023-09-10T08:08:24.881Z,19.32
2023-09-10T08:18:28.002Z,19.21
2023-09-10T08:28:32.481Z,19.50
2023-09-10T08:38:35.445Z,19.90
2023-09-10T08:48:41.594Z,20.05
2023-09-10T08:58:45.372Z,21.14
2023-09-10T09:08:51.927Z,20.72
2023-09-10T09:18:55.721Z,20.92
2023-09-10T09:28:59.982Z,21.21
2023-09-10T09:39:06.048Z,22.03
2023-09-10T09:49:10.242Z,21.96
2023-09-10T09:59:13.239Z,22.83
2023-09-10T10:09:19.695Z,23.26
2023-09-10T10:19:23.058Z,23.61
2023-09-10T10:29:27.415Z,24.65
2023-09-10T10:39:35.271Z,25.57
2023-09-10T10:49:40.574Z,26.59
2023-09-10T10:59:43.561Z,25.80
2023-09-10T11:09:49.109Z,27.45
2023-09-10T11:19:51.943Z,27.94
2023-09-10T11:30:13.328Z,26.96
2023-09-10T11:40:16.592Z,28.54
2023-09-10T11:50:25.358Z,27.25
2023-09-10T12:00:28.692Z,27.40
2023-09-10T12:10:33.482Z,27.41
2023-09-10T12:20:37.124Z,28.43
2023-09-10T12:30:42.158Z,28.63
2023-09-10T12:40:45.297Z,29.51
2023-09-10T12:50:52.010Z,30.94
2023-09-10T13:00:58.859Z,29.65
2023-09-10T13:11:04.367Z,29.71
2023-09-10T13:21:07.282Z,30.36
2023-09-10T13:31:11.502Z,30.73
2023-09-10T13:41:14.463Z,31.52
2023-09-10T13:51:18.792Z,31.67
2023-09-10T14:01:21.805Z,32.11
2023-09-10T14:11:26.190Z,33.14
2023-09-10T14:21:29.052Z,32.95
2023-09-10T14:31:33.407Z,33.06
2023-09-10T14:41:36.307Z,33.42
2023-09-10T14:51:40.526Z,35.05
2023-09-10T15:01:43.377Z,36.57
2023-09-10T15:11:47.538Z,36.08
2023-09-10T15:21:50.435Z,36.97
2023-09-10T15:31:54.635Z,38.93
2023-09-10T15:41:57.512Z,39.40
2023-09-10T15:52:02.298Z,40.62
2023-09-10T16:02:16.566Z,40.06
2023-09-10T16:12:21.061Z,39.75
2023-09-10T16:22:26.057Z,38.70
2023-09-10T16:32:30.292Z,38.47
2023-09-10T16:42:33.161Z,37.14
2023-09-10T16:52:37.573Z,35.96
2023-09-10T17:02:40.664Z,35.13
2023-09-10T17:12:46.633Z,32.60
2023-09-10T17:22:49.555Z,30.31
2023-09-10T17:32:57.609Z,27.50
2023-09-10T17:43:00.695Z,25.67
2023-09-10T17:53:05.217Z,24.33
2023-09-10T18:03:08.208Z,23.29
2023-09-10T18:13:12.664Z,22.59
2023-09-10T18:23:15.487Z,21.98
2023-09-10T18:33:19.690Z,21.55
2023-09-10T18:43:22.544Z,20.94
2023-09-10T18:53:26.737Z,20.41
2023-09-10T19:03:30.159Z,20.13
2023-09-10T19:13:34.624Z,19.69
2023-09-10T19:23:37.610Z,19.50
2023-09-10T19:33:42.194Z,19.19
2023-09-10T19:43:45.243Z,18.78
2023-09-10T19:53:49.797Z,18.58
2023-09-10T20:03:52.732Z,18.25
2023-09-10T20:13:57.772Z,17.87
2023-09-10T20:24:00.586Z,17.67
2023-09-10T20:34:05.224Z,17.43
2023-09-10T20:44:08.328Z,17.25
2023-09-10T20:54:12.530Z,17.07
2023-09-10T21:04:15.446Z,16.86
2023-09-10T21:14:39.539Z,16.52
2023-09-10T21:24:42.377Z,16.44
2023-09-10T21:34:46.546Z,15.89
2023-09-10T21:44:49.396Z,15.59
2023-09-10T21:54:53.746Z,15.36
2023-09-10T22:04:56.546Z,15.07
2023-09-10T22:15:06.293Z,15.23
2023-09-10T22:25:14.488Z,14.91
2023-09-10T22:35:18.854Z,14.86
2023-09-10T22:45:21.789Z,14.77
2023-09-10T22:55:25.963Z,14.82
2023-09-10T23:05:28.776Z,14.71
2023-09-10T23:15:33.031Z,14.64
2023-09-10T23:25:35.853Z,14.69
2023-09-10T23:35:40.242Z,14.30
2023-09-10T23:45:43.318Z,14.13
2023-09-10T23:55:47.512Z,14.04
